Time;durP1;ratioP1;P1;durP2;ratioP2;P2;SDS_P1;SDS_P2;PMS_P1;PMS_P2;Temp;Humidity;BMP_temperature;BMP_pressure;BME280_temperature;BME280_humidity;BME280_pressure;Samples;Min_cycle;Max_cycle;Signal;HPM_P1;HPM_P2
2022/02/18 00:00:56;;;;;;;5.47;1.20;;;;;13.00;100865.00;;;;5072900;28;20195;-82
2022/02/18 00:03:24;;;;;;;2.53;0.47;;;;;13.00;100862.00;;;;5067826;28;20563;-82
2022/02/18 00:05:53;;;;;;;7.35;1.48;;;;;13.00;100859.00;;;;5083653;28;20205;-82
2022/02/18 00:08:20;;;;;;;3.17;0.98;;;;;13.00;100859.00;;;;5079288;28;20226;-83
2022/02/18 00:10:48;;;;;;;1.83;0.93;;;;;13.10;100861.00;;;;5080126;28;20899;-82
2022/02/18 00:13:16;;;;;;;4.45;1.00;;;;;13.10;100869.00;;;;5072267;28;20213;-82
2022/02/18 00:15:43;;;;;;;5.28;1.08;;;;;13.10;100865.00;;;;5070459;28;20199;-82
2022/02/18 00:18:10;;;;;;;6.88;1.10;;;;;13.10;100861.00;;;;5071241;28;20221;-82
2022/02/18 00:20:38;;;;;;;4.75;0.98;;;;;13.10;100859.00;;;;5075559;28;20199;-83
2022/02/18 00:23:09;;;;;;;5.65;1.90;;;;;13.10;100847.00;;;;5071148;28;20206;-83
2022/02/18 00:25:38;;;;;;;1.98;0.70;;;;;13.10;100847.00;;;;5075922;28;20249;-82
2022/02/18 00:28:06;;;;;;;3.40;0.70;;;;;13.20;100852.00;;;;5076012;28;20218;-83
2022/02/18 00:30:33;;;;;;;3.95;0.75;;;;;13.20;100847.00;;;;5081446;28;20210;-83
2022/02/18 00:33:01;;;;;;;7.18;1.45;;;;;13.10;100847.00;;;;5074659;28;20197;-83
2022/02/18 00:35:28;;;;;;;3.80;1.00;;;;;13.20;100829.00;;;;5091185;28;20205;-82
2022/02/18 00:37:56;;;;;;;6.22;1.17;;;;;13.20;100815.00;;;;5071339;28;20648;-82
2022/02/18 00:40:26;;;;;;;5.32;1.23;;;;;13.10;100825.00;;;;5085969;28;20582;-83
2022/02/18 00:42:53;;;;;;;3.90;1.00;;;;;13.20;100819.00;;;;5078165;28;20194;-82
2022/02/18 00:45:21;;;;;;;6.10;0.73;;;;;13.20;100826.00;;;;5071143;28;20206;-82
2022/02/18 00:47:49;;;;;;;8.15;1.52;;;;;13.20;100817.00;;;;5071323;28;20238;-82
2022/02/18 00:50:17;;;;;;;5.20;1.15;;;;;13.20;100822.00;;;;5071104;28;20214;-82
2022/02/18 00:52:44;;;;;;;5.35;0.98;;;;;13.20;100823.00;;;;5084357;28;20206;-82
2022/02/18 00:55:12;;;;;;;2.22;0.70;;;;;13.20;100823.00;;;;5080316;28;20206;-82
2022/02/18 00:57:41;;;;;;;8.23;1.15;;;;;13.20;100823.00;;;;5090281;28;20198;-82
2022/02/18 01:00:10;;;;;;;7.57;1.48;;;;;13.30;100807.00;;;;5070727;28;20750;-83
2022/02/18 01:02:38;;;;;;;4.75;1.00;;;;;13.30;100797.00;;;;5073368;28;20198;-82
2022/02/18 01:05:06;;;;;;;3.42;1.20;;;;;13.30;100803.00;;;;5070456;28;20560;-83
2022/02/18 01:07:33;;;;;;;11.93;1.85;;;;;13.30;100810.00;;;;5075598;28;20214;-83
2022/02/18 01:10:01;;;;;;;4.50;0.85;;;;;13.30;100813.00;;;;5081680;28;20213;-82
2022/02/18 01:12:28;;;;;;;2.72;1.08;;;;;13.30;100809.00;;;;5070720;28;20202;-82
2022/02/18 01:14:57;;;;;;;4.32;0.80;;;;;13.30;100810.00;;;;5086692;28;20194;-83
2022/02/18 01:17:24;;;;;;;4.35;0.93;;;;;13.30;100806.00;;;;5077766;28;20222;-82
2022/02/18 01:19:51;;;;;;;6.03;0.82;;;;;13.30;100800.00;;;;5070173;28;20195;-82
2022/02/18 01:22:18;;;;;;;9.68;1.50;;;;;13.30;100797.00;;;;5080551;28;20195;-82
2022/02/18 01:24:46;;;;;;;5.80;1.13;;;;;13.40;100795.00;;;;5080054;28;20191;-82
2022/02/18 01:27:13;;;;;;;5.05;1.05;;;;;13.30;100791.00;;;;5089793;28;20222;-82
2022/02/18 01:29:40;;;;;;;5.05;1.15;;;;;13.40;100796.00;;;;5089469;28;20656;-82
2022/02/18 01:32:10;;;;;;;4.75;0.85;;;;;13.30;100776.00;;;;5076294;28;20199;-82
2022/02/18 01:34:38;;;;;;;6.35;0.93;;;;;13.40;100784.00;;;;5073604;28;20198;-82
2022/02/18 01:37:06;;;;;;;7.82;1.48;;;;;13.40;100780.00;;;;5069880;28;20195;-82
2022/02/18 01:39:34;;;;;;;3.50;0.70;;;;;13.40;100782.00;;;;5070659;28;20206;-82
2022/02/18 01:42:03;;;;;;;3.17;1.35;;;;;13.40;100778.00;;;;5070375;28;20223;-82
2022/02/18 01:44:35;;;;;;;3.25;1.10;;;;;13.40;100777.00;;;;5080956;28;20194;-82
2022/02/18 01:47:03;;;;;;;6.20;0.90;;;;;13.40;100765.00;;;;5088316;28;20684;-82
2022/02/18 01:49:31;;;;;;;6.55;1.42;;;;;13.40;100769.00;;;;5077299;28;20183;-82
2022/02/18 01:51:59;;;;;;;6.40;0.90;;;;;13.50;100766.00;;;;5084619;28;20568;-82
2022/02/18 01:54:26;;;;;;;9.25;2.20;;;;;13.50;100754.00;;;;5089826;28;20198;-83
2022/02/18 01:56:53;;;;;;;4.00;0.88;;;;;13.50;100747.00;;;;5070609;28;20244;-82
2022/02/18 01:59:21;;;;;;;7.35;0.88;;;;;13.50;100739.00;;;;5078643;28;20198;-83
2022/02/18 02:01:48;;;;;;;4.72;0.60;;;;;13.50;100732.00;;;;5084973;28;20198;-82
2022/02/18 02:04:16;;;;;;;6.15;1.27;;;;;13.60;100736.00;;;;5083161;28;20202;-83
2022/02/18 02:06:45;;;;;;;2.85;0.70;;;;;13.60;100727.00;;;;5079397;28;20194;-82
2022/02/18 02:09:13;;;;;;;3.45;0.75;;;;;13.60;100725.00;;;;5086926;28;20201;-83
2022/02/18 02:11:41;;;;;;;4.30;1.20;;;;;13.60;100721.00;;;;5083391;28;20793;-82
2022/02/18 02:14:08;;;;;;;4.30;0.90;;;;;13.70;100706.00;;;;5069167;28;20191;-82
2022/02/18 02:16:35;;;;;;;5.07;0.88;;;;;13.70;100705.00;;;;5074154;28;20226;-82
2022/02/18 02:19:03;;;;;;;5.68;0.80;;;;;13.70;100694.00;;;;5077051;28;20703;-82
2022/02/18 02:21:31;;;;;;;7.75;0.88;;;;;13.70;100670.00;;;;5075731;28;20190;-82
2022/02/18 02:24:00;;;;;;;3.72;0.85;;;;;13.70;100659.00;;;;5086380;28;20206;-82
2022/02/18 02:26:29;;;;;;;4.53;1.20;;;;;13.80;100661.00;;;;5072282;28;20199;-83
2022/02/18 02:28:56;;;;;;;6.68;1.05;;;;;13.80;100655.00;;;;5076105;28;20747;-82
2022/02/18 02:31:24;;;;;;;2.63;0.93;;;;;13.80;100643.00;;;;5075138;28;20194;-83
2022/02/18 02:33:52;;;;;;;4.35;1.08;;;;;13.80;100643.00;;;;5070044;28;20301;-81
2022/02/18 02:36:21;;;;;;;3.50;0.90;;;;;13.80;100643.00;;;;5075340;28;20668;-83
2022/02/18 02:38:51;;;;;;;3.88;0.98;;;;;13.90;100640.00;;;;5070534;28;20616;-82
2022/02/18 02:41:19;;;;;;;2.88;0.93;;;;;13.90;100637.00;;;;5089013;28;21067;-83
2022/02/18 02:43:47;;;;;;;6.97;1.20;;;;;13.90;100616.00;;;;5068687;28;20199;-83
2022/02/18 02:46:14;;;;;;;4.50;0.90;;;;;13.90;100613.00;;;;5072035;28;20194;-83
2022/02/18 02:48:41;;;;;;;5.25;0.88;;;;;13.90;100623.00;;;;5068859;28;20214;-83
2022/02/18 02:51:10;;;;;;;5.65;1.38;;;;;13.90;100614.00;;;;5071359;28;20665;-82
2022/02/18 02:53:40;;;;;;;5.63;1.55;;;;;13.90;100612.00;;;;5068856;28;20190;-82
2022/02/18 02:56:08;;;;;;;4.00;1.08;;;;;13.90;100596.00;;;;5068082;28;20195;-82
2022/02/18 02:58:37;;;;;;;3.70;1.00;;;;;13.90;100591.00;;;;5081394;28;20213;-82
2022/02/18 03:01:06;;;;;;;5.30;1.25;;;;;13.90;100578.00;;;;5075073;28;20285;-82
2022/02/18 03:03:33;;;;;;;3.22;0.85;;;;;13.90;100586.00;;;;5086597;28;20206;-82
2022/02/18 03:06:01;;;;;;;7.50;1.50;;;;;13.90;100576.00;;;;5083628;28;20202;-82
2022/02/18 03:08:28;;;;;;;3.60;0.93;;;;;13.90;100570.00;;;;5078000;28;20223;-82
2022/02/18 03:13:41;;;;;;;4.07;0.70;;;;;13.90;100580.00;;;;5088939;28;20729;-82
2022/02/18 03:16:09;;;;;;;3.50;1.13;;;;;13.90;100576.00;;;;5079781;28;20241;-82
2022/02/18 03:18:36;;;;;;;6.38;2.08;;;;;13.90;100570.00;;;;5078683;28;20205;-82
2022/02/18 03:21:04;;;;;;;7.32;1.70;;;;;14.00;100554.00;;;;5073456;28;20620;-82
2022/02/18 03:23:32;;;;;;;7.40;1.27;;;;;14.00;100543.00;;;;5070070;28;20186;-82
2022/02/18 03:25:59;;;;;;;6.65;1.73;;;;;14.00;100533.00;;;;5083288;28;20202;-83
2022/02/18 03:28:26;;;;;;;3.58;1.00;;;;;14.00;100531.00;;;;5088849;28;20218;-82
2022/02/18 03:30:56;;;;;;;7.00;1.98;;;;;14.00;100532.00;;;;5071431;28;20278;-82
2022/02/18 03:33:24;;;;;;;3.97;1.45;;;;;14.00;100532.00;;;;5088565;28;20811;-82
2022/02/18 03:35:51;;;;;;;5.22;1.40;;;;;14.00;100523.00;;;;5069275;28;20195;-83
2022/02/18 03:38:18;;;;;;;9.30;1.27;;;;;14.00;100504.00;;;;5082398;28;20672;-82
2022/02/18 03:40:47;;;;;;;5.30;1.20;;;;;14.00;100507.00;;;;5078264;28;20221;-82
2022/02/18 03:43:14;;;;;;;5.60;1.50;;;;;14.00;100513.00;;;;5091862;28;20190;-82
2022/02/18 03:45:41;;;;;;;5.55;1.15;;;;;14.10;100519.00;;;;5090836;28;20667;-83
2022/02/18 03:48:10;;;;;;;4.60;1.33;;;;;14.00;100497.00;;;;5072266;28;20701;-82
2022/02/18 03:50:37;;;;;;;4.60;1.38;;;;;14.00;100498.00;;;;5072432;28;20202;-82
2022/02/18 03:53:05;;;;;;;7.90;1.35;;;;;14.00;100493.00;;;;5078485;28;20194;-82
2022/02/18 03:55:32;;;;;;;10.13;1.90;;;;;14.00;100482.00;;;;5074119;28;20688;-83
2022/02/18 03:57:59;;;;;;;6.90;1.80;;;;;14.00;100474.00;;;;5077042;28;20190;-82
2022/02/18 04:00:27;;;;;;;9.23;1.88;;;;;14.00;100453.00;;;;5091535;28;20557;-82
2022/02/18 04:02:54;;;;;;;11.48;2.67;;;;;14.00;100426.00;;;;5073268;28;20203;-82
2022/02/18 04:05:22;;;;;;;4.35;1.83;;;;;14.00;100400.00;;;;5076670;28;20191;-81
2022/02/18 04:07:50;;;;;;;6.35;1.83;;;;;14.00;100409.00;;;;5089050;28;20226;-82
2022/02/18 04:10:17;;;;;;;5.25;2.05;;;;;14.00;100400.00;;;;5073982;28;20556;-82
2022/02/18 04:12:44;;;;;;;9.05;2.50;;;;;14.00;100374.00;;;;5088496;28;20202;-82
2022/02/18 04:15:11;;;;;;;8.73;2.22;;;;;14.00;100372.00;;;;5088963;28;20210;-82
2022/02/18 04:17:39;;;;;;;7.30;2.53;;;;;14.00;100357.00;;;;5075596;28;20720;-82
2022/02/18 04:20:07;;;;;;;12.95;2.15;;;;;14.10;100346.00;;;;5087856;28;20206;-83
2022/02/18 04:22:36;;;;;;;8.05;1.67;;;;;14.00;100344.00;;;;5071704;28;20241;-82
2022/02/18 04:25:05;;;;;;;6.80;2.28;;;;;14.10;100354.00;;;;5077107;28;20195;-82
2022/02/18 04:27:32;;;;;;;6.05;1.73;;;;;14.10;100339.00;;;;5071451;28;20204;-83
2022/02/18 04:29:59;;;;;;;6.05;1.98;;;;;14.10;100316.00;;;;5088895;28;20683;-82
2022/02/18 04:32:26;;;;;;;6.47;1.98;;;;;14.00;100318.00;;;;5092097;28;20198;-83
2022/02/18 04:34:53;;;;;;;7.45;1.83;;;;;14.10;100302.00;;;;5079905;28;20206;-82
2022/02/18 04:37:21;;;;;;;8.70;2.80;;;;;14.00;100311.00;;;;5085112;28;20544;-82
2022/02/18 04:39:49;;;;;;;6.07;1.73;;;;;14.00;100315.00;;;;5088224;28;20194;-82
2022/02/18 04:42:18;;;;;;;9.88;2.00;;;;;14.00;100319.00;;;;5081967;28;20191;-82
2022/02/18 04:44:45;;;;;;;5.90;1.90;;;;;14.00;100342.00;;;;5071073;28;20198;-82
2022/02/18 04:47:12;;;;;;;8.68;2.53;;;;;14.00;100335.00;;;;5083450;28;20194;-82
2022/02/18 04:49:40;;;;;;;13.98;2.80;;;;;14.00;100306.00;;;;5081111;28;20354;-83
2022/02/18 04:52:07;;;;;;;6.80;1.75;;;;;14.00;100291.00;;;;5082763;28;20206;-82
2022/02/18 04:54:35;;;;;;;9.05;1.83;;;;;14.00;100284.00;;;;5086098;28;20195;-83
2022/02/18 04:57:03;;;;;;;9.27;2.08;;;;;13.90;100260.00;;;;5081869;28;20202;-82
2022/02/18 04:59:31;;;;;;;6.03;1.67;;;;;14.00;100273.00;;;;5090072;28;20190;-82
2022/02/18 05:01:58;;;;;;;9.70;2.13;;;;;14.00;100269.00;;;;5087083;28;20203;-82
2022/02/18 05:04:25;;;;;;;12.02;2.75;;;;;14.00;100250.00;;;;5073376;28;20195;-83
2022/02/18 05:06:52;;;;;;;7.55;1.40;;;;;14.00;100248.00;;;;5083938;28;20560;-83
2022/02/18 05:09:20;;;;;;;6.78;1.77;;;;;14.00;100227.00;;;;5086869;28;20234;-83
2022/02/18 05:11:47;;;;;;;6.50;1.75;;;;;14.00;100218.00;;;;5078786;28;20194;-82
2022/02/18 05:14:16;;;;;;;8.70;1.67;;;;;14.00;100209.00;;;;5070687;28;20195;-83
2022/02/18 05:16:43;;;;;;;8.13;1.80;;;;;14.00;100220.00;;;;5070956;28;20223;-83
2022/02/18 05:19:11;;;;;;;9.75;2.03;;;;;14.00;100225.00;;;;5075959;28;20205;-82
2022/02/18 05:21:39;;;;;;;11.23;2.00;;;;;14.00;100201.00;;;;5070377;28;20187;-82
2022/02/18 05:24:07;;;;;;;7.68;1.92;;;;;14.00;100192.00;;;;5079274;28;20207;-82
2022/02/18 05:26:36;;;;;;;7.82;2.20;;;;;14.00;100197.00;;;;5071992;28;20203;-83
2022/02/18 05:29:05;;;;;;;12.13;1.90;;;;;14.00;100183.00;;;;5069852;28;20223;-82
2022/02/18 05:31:33;;;;;;;8.98;1.92;;;;;14.00;100174.00;;;;5070161;28;20712;-82
2022/02/18 05:34:01;;;;;;;12.05;1.85;;;;;14.00;100171.00;;;;5070448;28;20286;-83
2022/02/18 05:36:28;;;;;;;9.80;1.90;;;;;14.00;100159.00;;;;5088365;28;20202;-82
2022/02/18 05:38:55;;;;;;;10.13;1.92;;;;;14.00;100147.00;;;;5071099;28;20278;-83
2022/02/18 05:41:23;;;;;;;15.13;2.63;;;;;14.10;100138.00;;;;5069694;28;20229;-83
2022/02/18 05:43:50;;;;;;;8.00;2.17;;;;;14.10;100122.00;;;;5072721;28;20660;-81
2022/02/18 05:46:17;;;;;;;6.95;1.67;;;;;14.10;100110.00;;;;5075408;28;20627;-82
2022/02/18 05:48:47;;;;;;;7.28;1.90;;;;;14.10;100106.00;;;;5070671;28;20230;-82
2022/02/18 05:51:14;;;;;;;6.80;1.35;;;;;14.10;100093.00;;;;5080268;28;20890;-82
2022/02/18 05:53:41;;;;;;;5.35;1.52;;;;;14.10;100084.00;;;;5077765;28;20206;-82
2022/02/18 05:56:08;;;;;;;5.35;1.30;;;;;14.10;100067.00;;;;5069305;28;20195;-84
2022/02/18 05:58:36;;;;;;;7.63;1.50;;;;;14.10;100074.00;;;;5074443;28;20214;-83
2022/02/18 06:01:04;;;;;;;6.75;1.77;;;;;14.10;100066.00;;;;5076710;28;20598;-83
2022/02/18 06:03:31;;;;;;;7.70;1.73;;;;;14.10;100053.00;;;;5090201;28;20555;-82
2022/02/18 06:06:00;;;;;;;9.43;1.75;;;;;14.00;100045.00;;;;5089318;28;20207;-81
2022/02/18 06:08:27;;;;;;;7.57;1.77;;;;;14.10;100037.00;;;;5068719;28;20215;-83
2022/02/18 06:10:54;;;;;;;6.22;1.90;;;;;14.00;100025.00;;;;5074955;28;20213;-81
2022/02/18 06:13:22;;;;;;;10.25;1.73;;;;;14.10;100015.00;;;;5094990;28;20953;-81
2022/02/18 06:15:49;;;;;;;9.13;1.77;;;;;14.10;100016.00;;;;5073630;28;20661;-80
2022/02/18 06:18:16;;;;;;;9.40;1.48;;;;;14.00;100011.00;;;;5083448;28;20220;-82
2022/02/18 06:20:43;;;;;;;8.57;1.85;;;;;14.00;99987.00;;;;5075588;28;20198;-82
2022/02/18 06:23:12;;;;;;;6.20;1.83;;;;;14.00;99966.00;;;;5077145;28;20199;-82
2022/02/18 06:25:40;;;;;;;6.88;1.40;;;;;14.00;99958.00;;;;5090191;28;20195;-82
2022/02/18 06:28:09;;;;;;;7.60;1.95;;;;;14.00;99940.00;;;;5083251;28;20276;-81
2022/02/18 06:30:37;;;;;;;6.00;1.60;;;;;14.00;99935.00;;;;5076678;28;20268;-81
2022/02/18 06:33:06;;;;;;;7.15;1.73;;;;;14.00;99927.00;;;;5075476;28;20202;-81
2022/02/18 06:35:34;;;;;;;6.00;1.20;;;;;14.00;99917.00;;;;5074088;28;20274;-81
2022/02/18 06:38:01;;;;;;;5.88;1.30;;;;;14.00;99908.00;;;;5082454;28;20201;-81
2022/02/18 06:40:29;;;;;;;9.25;1.63;;;;;14.00;99893.00;;;;5075679;28;20215;-82
2022/02/18 06:42:57;;;;;;;7.57;1.80;;;;;14.00;99885.00;;;;5067401;28;20673;-82
2022/02/18 06:45:25;;;;;;;5.95;1.48;;;;;14.00;99877.00;;;;5068300;28;20234;-83
2022/02/18 06:47:52;;;;;;;5.80;1.20;;;;;14.10;99863.00;;;;5067814;28;20195;-81
2022/02/18 06:50:20;;;;;;;6.22;1.38;;;;;14.00;99852.00;;;;5069006;28;20222;-80
2022/02/18 06:52:48;;;;;;;5.85;1.55;;;;;14.00;99849.00;;;;5070202;28;20580;-82
2022/02/18 06:55:16;;;;;;;9.60;1.70;;;;;14.00;99841.00;;;;5088901;28;20289;-81
2022/02/18 06:57:46;;;;;;;4.63;1.48;;;;;14.00;99830.00;;;;5089168;28;20202;-82
2022/02/18 07:00:15;;;;;;;7.65;1.73;;;;;14.00;99824.00;;;;5071425;28;21259;-82
2022/02/18 07:02:43;;;;;;;7.70;1.65;;;;;14.00;99830.00;;;;5050177;28;20202;-82
2022/02/18 07:05:12;;;;;;;6.00;1.58;;;;;14.00;99810.00;;;;5048388;28;20592;-82
2022/02/18 07:07:40;;;;;;;10.85;1.95;;;;;14.00;99787.00;;;;5048976;28;20233;-81
2022/02/18 07:10:10;;;;;;;6.70;1.40;;;;;14.00;99799.00;;;;5052937;28;20704;-82
2022/02/18 07:12:38;;;;;;;8.35;1.65;;;;;14.00;99820.00;;;;5054131;28;20206;-82
2022/02/18 07:15:08;;;;;;;5.72;1.30;;;;;13.90;99808.00;;;;5053400;28;20202;-82
2022/02/18 07:17:36;;;;;;;8.02;1.60;;;;;14.00;99798.00;;;;5053645;28;20250;-82
2022/02/18 07:20:04;;;;;;;8.13;1.02;;;;;14.00;99773.00;;;;5049097;28;20191;-82
2022/02/18 07:22:33;;;;;;;8.38;1.85;;;;;14.00;99782.00;;;;5054332;28;20224;-84
2022/02/18 07:25:01;;;;;;;5.57;1.40;;;;;14.00;99781.00;;;;5051341;28;20235;-82
2022/02/18 07:27:28;;;;;;;4.18;1.38;;;;;14.00;99755.00;;;;5052868;28;20199;-83
2022/02/18 07:29:55;;;;;;;5.72;1.25;;;;;14.00;99770.00;;;;5055111;28;20214;-81
2022/02/18 07:32:24;;;;;;;6.30;1.42;;;;;14.00;99757.00;;;;5049580;28;20222;-81
2022/02/18 07:34:52;;;;;;;9.48;2.08;;;;;14.00;99735.00;;;;5062245;28;20223;-81
2022/02/18 07:37:19;;;;;;;9.32;1.75;;;;;14.00;99716.00;;;;5062010;28;20257;-82
2022/02/18 07:39:47;;;;;;;6.13;1.80;;;;;14.00;99711.00;;;;5064009;28;20711;-80
2022/02/18 07:42:14;;;;;;;9.32;1.77;;;;;14.10;99713.00;;;;5058934;28;20195;-79
2022/02/18 07:44:42;;;;;;;5.18;2.00;;;;;14.10;99711.00;;;;5049688;28;20200;-80
2022/02/18 07:47:10;;;;;;;4.45;1.52;;;;;14.10;99686.00;;;;5047665;28;20253;-80
2022/02/18 07:49:40;;;;;;;4.97;1.65;;;;;14.10;99684.00;;;;5055533;28;20222;-80
2022/02/18 07:52:08;;;;;;;5.78;1.20;;;;;14.10;99686.00;;;;5060444;28;20678;-80
2022/02/18 07:54:35;;;;;;;4.15;1.40;;;;;14.20;99673.00;;;;5055555;28;20294;-80
2022/02/18 07:57:03;;;;;;;2.78;0.93;;;;;14.20;99670.00;;;;5047411;28;20214;-79
2022/02/18 07:59:31;;;;;;;7.22;1.55;;;;;14.20;99668.00;;;;5047176;28;20203;-80
2022/02/18 08:01:58;;;;;;;4.07;1.10;;;;;14.20;99668.00;;;;5057514;28;20226;-81
2022/02/18 08:04:25;;;;;;;5.13;1.20;;;;;14.30;99647.00;;;;5065947;28;20196;-80
2022/02/18 08:06:54;;;;;;;5.30;1.20;;;;;14.30;99645.00;;;;5047614;28;20195;-80
2022/02/18 08:09:21;;;;;;;3.28;0.95;;;;;14.30;99649.00;;;;5048501;28;20231;-80
2022/02/18 08:11:48;;;;;;;4.60;1.33;;;;;14.30;99644.00;;;;5047094;28;20207;-80
2022/02/18 08:14:15;;;;;;;5.05;1.63;;;;;14.30;99637.00;;;;5051343;28;20195;-79
2022/02/18 08:16:43;;;;;;;3.83;1.08;;;;;14.30;99635.00;;;;5058906;28;20227;-80
2022/02/18 08:19:10;;;;;;;9.50;1.65;;;;;14.40;99628.00;;;;5062401;28;20257;-80
2022/02/18 08:21:37;;;;;;;4.40;1.13;;;;;14.40;99620.00;;;;5058054;28;20191;-80
2022/02/18 08:24:06;;;;;;;3.13;1.20;;;;;14.40;99608.00;;;;5066684;28;20211;-79
2022/02/18 08:26:33;;;;;;;3.25;1.00;;;;;14.40;99601.00;;;;5062962;28;20245;-79
2022/02/18 08:29:01;;;;;;;5.22;1.33;;;;;14.50;99600.00;;;;5056648;28;20631;-79
2022/02/18 08:31:28;;;;;;;4.78;1.17;;;;;14.50;99593.00;;;;5064273;28;20945;-80
2022/02/18 08:33:55;;;;;;;3.58;1.20;;;;;14.50;99588.00;;;;5068556;28;20191;-80
2022/02/18 08:36:22;;;;;;;4.15;1.00;;;;;14.50;99571.00;;;;5060664;28;20192;-80
2022/02/18 08:38:50;;;;;;;4.05;1.25;;;;;14.60;99564.00;;;;5070773;28;20198;-79
2022/02/18 08:41:18;;;;;;;2.80;1.55;;;;;14.60;99563.00;;;;5055973;28;20269;-80
2022/02/18 08:43:45;;;;;;;4.57;1.40;;;;;14.60;99553.00;;;;5064373;28;20640;-81
2022/02/18 08:46:13;;;;;;;2.97;1.33;;;;;14.70;99544.00;;;;5070775;28;20218;-80
2022/02/18 08:48:40;;;;;;;3.97;1.33;;;;;14.70;99528.00;;;;5055195;28;20187;-79
2022/02/18 08:51:07;;;;;;;4.20;1.30;;;;;14.80;99521.00;;;;5070902;28;20234;-79
2022/02/18 08:53:34;;;;;;;2.05;1.17;;;;;14.80;99534.00;;;;5052967;28;20645;-80
2022/02/18 08:56:02;;;;;;;3.03;1.50;;;;;14.80;99520.00;;;;5050557;28;20681;-79
2022/02/18 08:58:30;;;;;;;2.75;1.25;;;;;14.90;99528.00;;;;5055677;28;20198;-79
2022/02/18 09:00:58;;;;;;;3.08;1.30;;;;;14.90;99512.00;;;;5059454;28;20758;-80
2022/02/18 09:03:25;;;;;;;3.92;1.85;;;;;15.00;99509.00;;;;5067816;28;20205;-80
2022/02/18 09:05:52;;;;;;;4.13;1.90;;;;;15.00;99503.00;;;;5071167;28;20210;-80
2022/02/18 09:08:21;;;;;;;2.20;1.38;;;;;15.00;99509.00;;;;5059168;28;20685;-80
2022/02/18 09:10:50;;;;;;;2.15;1.35;;;;;15.10;99495.00;;;;5051113;28;20223;-80
2022/02/18 09:13:17;;;;;;;3.47;1.20;;;;;15.10;99485.00;;;;5065320;28;20275;-80
2022/02/18 09:15:45;;;;;;;4.72;1.40;;;;;15.10;99477.00;;;;5052132;28;20196;-80
2022/02/18 09:18:13;;;;;;;3.53;1.50;;;;;15.20;99457.00;;;;5055154;28;20635;-80
2022/02/18 09:20:40;;;;;;;3.00;1.65;;;;;15.30;99465.00;;;;5051396;28;20219;-80
2022/02/18 09:23:08;;;;;;;2.42;1.70;;;;;15.30;99462.00;;;;5063065;28;20195;-79
2022/02/18 09:25:35;;;;;;;4.32;1.75;;;;;15.30;99452.00;;;;5054845;28;20195;-80
2022/02/18 09:28:02;;;;;;;2.90;1.40;;;;;15.40;99450.00;;;;5050725;28;20206;-81
2022/02/18 09:30:30;;;;;;;3.53;1.40;;;;;15.40;99445.00;;;;5053896;28;20227;-81
2022/02/18 09:33:00;;;;;;;4.82;1.63;;;;;15.40;99450.00;;;;5077462;28;20202;-81
2022/02/18 09:35:27;;;;;;;2.22;1.30;;;;;15.50;99442.00;;;;5054857;28;20215;-81
2022/02/18 09:37:56;;;;;;;3.53;1.33;;;;;15.50;99447.00;;;;5049879;28;20230;-82
2022/02/18 09:40:23;;;;;;;3.40;1.50;;;;;15.60;99423.00;;;;5066620;28;20211;-82
2022/02/18 09:42:50;;;;;;;3.20;1.60;;;;;15.60;99410.00;;;;5069720;28;20191;-82
2022/02/18 09:45:18;;;;;;;3.33;1.13;;;;;15.70;99390.00;;;;5062198;28;20705;-82
2022/02/18 09:47:48;;;;;;;3.80;1.65;;;;;15.70;99383.00;;;;5049956;28;20200;-81
2022/02/18 09:50:17;;;;;;;2.60;1.30;;;;;15.70;99368.00;;;;5066711;28;20222;-81
2022/02/18 09:52:45;;;;;;;2.63;1.00;;;;;15.80;99377.00;;;;5085592;28;20255;-81
2022/02/18 09:55:12;;;;;;;2.05;1.15;;;;;15.80;99372.00;;;;5090149;28;20206;-80
2022/02/18 09:57:43;;;;;;;3.33;1.77;;;;;15.90;99358.00;;;;5085436;28;20648;-80
2022/02/18 10:00:12;;;;;;;1.95;1.33;;;;;15.90;99348.00;;;;5050447;28;20211;-80
2022/02/18 10:02:40;;;;;;;2.17;1.33;;;;;16.00;99358.00;;;;5048902;28;20218;-80
2022/02/18 10:05:09;;;;;;;1.95;1.05;;;;;16.00;99340.00;;;;5060871;28;20223;-81
2022/02/18 10:08:08;;;;;;;2.35;1.42;;;;;15.90;99333.00;;;;5069899;28;20203;-81
2022/02/18 10:10:39;;;;;;;1.77;1.15;;;;;16.00;99326.00;;;;5049852;28;20288;-81
2022/02/18 10:13:24;;;;;;;1.23;0.85;;;;;16.10;99325.00;;;;5067386;28;20206;-81
2022/02/18 10:15:51;;;;;;;1.17;0.80;;;;;16.10;99310.00;;;;5061784;28;20269;-81
2022/02/18 10:18:18;;;;;;;0.85;0.73;;;;;16.20;99308.00;;;;5049410;28;20203;-81
2022/02/18 10:20:47;;;;;;;1.10;0.77;;;;;16.20;99307.00;;;;5050088;28;20204;-81
2022/02/18 10:23:17;;;;;;;1.48;1.00;;;;;16.20;99289.00;;;;5061300;28;20207;-81
2022/02/18 10:25:48;;;;;;;2.88;0.77;;;;;16.30;99276.00;;;;5049755;28;20200;-81
2022/02/18 10:28:17;;;;;;;2.45;0.95;;;;;16.30;99273.00;;;;5049800;28;20603;-80
2022/02/18 10:30:46;;;;;;;1.88;0.90;;;;;16.40;99271.00;;;;5060841;28;20615;-84
2022/02/18 10:33:17;;;;;;;1.95;0.70;;;;;16.40;99254.00;;;;5057199;28;20194;-80
2022/02/18 10:35:46;;;;;;;1.38;0.70;;;;;16.50;99251.00;;;;5059128;28;20187;-82
2022/02/18 10:38:15;;;;;;;0.52;0.40;;;;;16.60;99244.00;;;;5060144;28;20814;-81
2022/02/18 10:40:44;;;;;;;1.15;0.65;;;;;16.60;99235.00;;;;5050500;28;20221;-81
2022/02/18 10:43:13;;;;;;;0.88;0.77;;;;;16.70;99229.00;;;;5050594;28;20207;-80
2022/02/18 10:45:53;;;;;;;2.85;0.88;;;;;16.70;99233.00;;;;5050216;28;20195;-80
2022/02/18 10:48:20;;;;;;;1.27;0.60;;;;;16.80;99227.00;;;;5061189;28;20290;-81
2022/02/18 10:51:03;;;;;;;3.13;0.70;;;;;16.70;99219.00;;;;5055656;28;20701;-80
2022/02/18 10:53:37;;;;;;;0.82;0.55;;;;;16.80;99228.00;;;;5048140;28;20282;-82
2022/02/18 10:56:05;;;;;;;0.80;0.45;;;;;16.90;99207.00;;;;5062637;28;20757;-80
2022/02/18 10:58:34;;;;;;;1.38;0.80;;;;;16.90;99190.00;;;;5062800;28;20195;-81
2022/02/18 11:01:07;;;;;;;0.82;0.57;;;;;16.90;99184.00;;;;5059603;28;20284;-83
2022/02/18 11:03:35;;;;;;;5.90;0.80;;;;;17.00;99163.00;;;;5047865;28;20286;-83
2022/02/18 11:06:18;;;;;;;0.90;0.70;;;;;17.00;99163.00;;;;5047671;28;20234;-84
2022/02/18 11:09:04;;;;;;;1.00;0.50;;;;;17.00;99141.00;;;;5051611;28;20606;-84
2022/02/18 11:11:33;;;;;;;3.22;0.40;;;;;17.10;99140.00;;;;5062286;28;20215;-83
2022/02/18 11:14:02;;;;;;;0.55;0.50;;;;;17.10;99141.00;;;;5047741;28;20257;-85
2022/02/18 11:16:30;;;;;;;0.73;0.50;;;;;17.20;99127.00;;;;5048864;28;20234;-81
2022/02/18 11:18:59;;;;;;;0.40;0.28;;;;;17.20;99129.00;;;;5051007;28;20207;-82
2022/02/18 11:21:27;;;;;;;0.55;0.40;;;;;17.30;99118.00;;;;5062506;28;20632;-81
2022/02/18 11:23:57;;;;;;;0.90;0.43;;;;;17.30;99104.00;;;;5074315;28;20707;-81
2022/02/18 11:26:27;;;;;;;0.40;0.20;;;;;17.30;99094.00;;;;5060064;28;20203;-82
2022/02/18 11:28:56;;;;;;;0.40;0.28;;;;;17.40;99092.00;;;;5047986;28;20265;-79
2022/02/18 11:31:27;;;;;;;0.75;0.40;;;;;17.40;99085.00;;;;5050312;28;20220;-78
2022/02/18 11:34:16;;;;;;;0.60;0.35;;;;;17.40;99080.00;;;;5050516;28;20211;-79
2022/02/18 11:37:31;;;;;;;0.52;0.40;;;;;17.40;99067.00;;;;5051372;28;20195;-79
2022/02/18 11:40:27;;;;;;;1.83;0.30;;;;;17.40;99043.00;;;;4997329;28;20205;-78
2022/02/18 11:43:10;;;;;;;0.40;0.38;;;;;17.50;99037.00;;;;5022448;28;20191;-80
2022/02/18 11:45:38;;;;;;;0.85;0.40;;;;;17.50;99033.00;;;;5054062;28;20191;-79
2022/02/18 11:48:05;;;;;;;0.30;0.30;;;;;17.60;99018.00;;;;5056383;28;20207;-78
2022/02/18 11:50:32;;;;;;;0.40;0.30;;;;;17.60;99009.00;;;;5056760;28;20226;-81
2022/02/18 11:53:00;;;;;;;0.50;0.40;;;;;17.70;98999.00;;;;5063636;28;20199;-82
2022/02/18 11:55:31;;;;;;;0.75;0.40;;;;;17.70;99000.00;;;;5064431;28;20817;-82
2022/02/18 11:58:06;;;;;;;2.00;0.70;;;;;17.70;98980.00;;;;5066636;28;20202;-82
2022/02/18 12:00:41;;;;;;;0.52;0.40;;;;;17.70;98988.00;;;;5069016;28;20239;-82
2022/02/18 12:03:14;;;;;;;0.93;0.30;;;;;17.70;98972.00;;;;5078865;28;20230;-82
2022/02/18 12:06:07;;;;;;;0.32;0.32;;;;;17.70;98964.00;;;;5071833;28;20207;-82
2022/02/18 12:08:36;;;;;;;0.50;0.40;;;;;17.80;98967.00;;;;5061727;28;20743;-82
2022/02/18 12:11:12;;;;;;;0.60;0.40;;;;;17.80;98958.00;;;;5063902;28;20279;-84
2022/02/18 12:13:57;;;;;;;0.57;0.40;;;;;17.70;98952.00;;;;5075630;28;20205;-84
2022/02/18 12:16:26;;;;;;;0.45;0.45;;;;;17.80;98935.00;;;;5087189;28;20320;-83
2022/02/18 12:19:04;;;;;;;0.60;0.60;;;;;17.70;98923.00;;;;5052239;28;20188;-83
2022/02/18 12:21:32;;;;;;;0.80;0.43;;;;;17.80;99012.00;;;;5054517;28;20201;-82
2022/02/18 12:24:40;;;;;;;2.20;0.85;;;;;17.50;99015.00;;;;5064780;28;20195;-81